Time;durP1;ratioP1;P1;durP2;ratioP2;P2;SDS_P1;SDS_P2;PMS_P1;PMS_P2;Temp;Humidity;BMP_temperature;BMP_pressure;BME280_temperature;BME280_humidity;BME280_pressure;Samples;Min_cycle;Max_cycle;Signal;HPM_P1;HPM_P2
2023/02/01 00:00:05;;;;;;;9.07;2.92;;;17.70;43.20;;;;;;5012930;28;20240;-65
2023/02/01 00:02:32;;;;;;;11.35;3.03;;;17.70;43.20;;;;;;5012023;28;20244;-65
2023/02/01 00:04:59;;;;;;;11.02;2.90;;;17.60;43.20;;;;;;5012644;28;20225;-65
2023/02/01 00:07:26;;;;;;;7.70;2.50;;;17.60;43.10;;;;;;5012458;28;20201;-65
2023/02/01 00:09:53;;;;;;;10.18;2.40;;;17.60;43.20;;;;;;5012641;28;20189;-65
2023/02/01 00:12:22;;;;;;;10.20;3.33;;;17.60;43.10;;;;;;5013071;28;20197;-65
2023/02/01 00:14:49;;;;;;;9.65;2.67;;;17.60;43.10;;;;;;5013152;28;20240;-65
2023/02/01 00:17:16;;;;;;;7.65;2.88;;;17.60;43.10;;;;;;5012919;28;20642;-65
2023/02/01 00:19:43;;;;;;;12.20;2.88;;;17.60;43.10;;;;;;5012963;28;20194;-64
2023/02/01 00:22:10;;;;;;;9.60;2.80;;;17.60;43.10;;;;;;5012965;28;20209;-65
2023/02/01 00:24:37;;;;;;;9.27;3.08;;;17.60;43.00;;;;;;5012955;28;20574;-65
2023/02/01 00:27:05;;;;;;;7.78;2.40;;;17.60;43.00;;;;;;5012707;28;20629;-65
2023/02/01 00:29:33;;;;;;;9.00;2.60;;;17.60;43.00;;;;;;5012838;28;20221;-65
2023/02/01 00:32:00;;;;;;;10.40;2.70;;;17.50;42.90;;;;;;5012346;28;20733;-65
2023/02/01 00:34:27;;;;;;;8.90;2.58;;;17.60;43.00;;;;;;5012708;28;20197;-65
2023/02/01 00:36:55;;;;;;;6.63;2.35;;;17.50;42.90;;;;;;4978395;28;20298;-65
2023/02/01 00:39:22;;;;;;;9.27;2.90;;;17.50;42.90;;;;;;5012642;28;20193;-65
2023/02/01 00:41:49;;;;;;;13.10;3.20;;;17.50;42.90;;;;;;5012862;28;20292;-65
2023/02/01 00:44:16;;;;;;;8.23;2.85;;;17.50;42.90;;;;;;5012657;28;20189;-65
2023/02/01 00:46:45;;;;;;;9.52;3.03;;;17.50;42.90;;;;;;5012554;28;20217;-65
2023/02/01 00:49:12;;;;;;;10.48;2.63;;;17.50;42.90;;;;;;5012153;28;20756;-65
2023/02/01 00:51:39;;;;;;;8.48;2.33;;;17.50;42.90;;;;;;5012729;28;20275;-65
2023/02/01 00:54:06;;;;;;;8.18;2.92;;;17.50;42.80;;;;;;5012228;28;20544;-65
2023/02/01 00:56:33;;;;;;;10.27;3.13;;;17.50;42.80;;;;;;5012599;28;20647;-65
2023/02/01 00:59:01;;;;;;;11.07;2.65;;;17.50;42.80;;;;;;5012419;28;20263;-65
2023/02/01 01:01:28;;;;;;;8.05;2.78;;;17.50;42.80;;;;;;5012274;28;20224;-65
2023/02/01 01:03:59;;;;;;;9.05;3.03;;;17.50;42.80;;;;;;5011968;28;20189;-65
2023/02/01 01:06:29;;;;;;;9.63;2.45;;;17.50;42.80;;;;;;5012169;28;20221;-65
2023/02/01 01:08:59;;;;;;;9.77;2.55;;;17.50;42.80;;;;;;5011954;28;20783;-66
2023/02/01 01:11:28;;;;;;;7.57;2.70;;;17.50;42.80;;;;;;5012271;28;20703;-65
2023/02/01 01:13:57;;;;;;;8.15;2.70;;;17.50;42.80;;;;;;5013045;28;20193;-65
2023/02/01 01:16:26;;;;;;;8.32;2.50;;;17.40;42.70;;;;;;5025431;28;20633;-65
2023/02/01 01:18:54;;;;;;;9.98;3.03;;;17.40;42.70;;;;;;5012661;28;20202;-66
2023/02/01 01:21:23;;;;;;;11.15;2.83;;;17.40;42.70;;;;;;5016268;28;20223;-65
2023/02/01 01:23:51;;;;;;;9.70;3.13;;;17.40;42.70;;;;;;5016207;28;20247;-65
2023/02/01 01:26:20;;;;;;;8.68;2.88;;;17.40;42.60;;;;;;5015966;28;20221;-65
2023/02/01 01:28:47;;;;;;;10.02;3.00;;;17.40;42.60;;;;;;5015955;28;20217;-65
2023/02/01 01:31:16;;;;;;;9.70;2.90;;;17.40;42.60;;;;;;5016115;28;20217;-67
2023/02/01 01:33:44;;;;;;;9.30;3.00;;;17.40;42.60;;;;;;5015576;28;20189;-65
2023/02/01 01:36:12;;;;;;;10.93;2.95;;;17.40;43.20;;;;;;5015714;28;20304;-65
2023/02/01 01:38:43;;;;;;;9.65;2.50;;;17.40;42.60;;;;;;5015829;28;20251;-65
2023/02/01 01:41:16;;;;;;;10.30;2.78;;;17.40;42.50;;;;;;5015493;28;20263;-65
2023/02/01 01:43:49;;;;;;;8.68;2.60;;;17.40;42.60;;;;;;5015516;28;20200;-65
2023/02/01 01:46:18;;;;;;;9.30;2.70;;;17.40;42.50;;;;;;5015397;28;20217;-65
2023/02/01 01:48:49;;;;;;;9.98;2.80;;;17.40;42.50;;;;;;5015625;28;20271;-65
2023/02/01 01:51:20;;;;;;;8.70;2.58;;;17.40;42.50;;;;;;5015841;28;20268;-65
2023/02/01 01:53:59;;;;;;;10.30;2.75;;;17.40;42.50;;;;;;5015616;28;20193;-66
2023/02/01 01:56:29;;;;;;;8.65;2.80;;;17.40;42.50;;;;;;5015326;28;20268;-65
2023/02/01 01:58:57;;;;;;;7.55;2.33;;;17.40;42.50;;;;;;5015486;28;20613;-65
2023/02/01 02:01:24;;;;;;;7.43;2.50;;;17.40;42.50;;;;;;5015599;28;20213;-65
2023/02/01 02:03:52;;;;;;;8.63;2.45;;;17.40;42.50;;;;;;5015235;28;20217;-66
2023/02/01 02:06:29;;;;;;;7.28;2.38;;;17.30;42.40;;;;;;5015219;28;20225;-65
2023/02/01 02:08:57;;;;;;;9.32;2.75;;;17.30;42.40;;;;;;5014855;28;20221;-66
2023/02/01 02:11:25;;;;;;;8.43;2.75;;;17.30;42.40;;;;;;5015026;28;20217;-65
2023/02/01 02:13:55;;;;;;;11.07;3.15;;;17.30;42.40;;;;;;5013892;28;20189;-65
2023/02/01 02:16:41;;;;;;;11.43;2.63;;;17.30;42.40;;;;;;5015155;28;20247;-65
2023/02/01 02:19:34;;;;;;;7.47;2.47;;;17.30;42.40;;;;;;5014737;28;20609;-65
2023/02/01 02:22:36;;;;;;;10.05;2.75;;;17.30;42.40;;;;;;5015122;28;20228;-65
2023/02/01 02:25:35;;;;;;;8.45;2.53;;;17.30;42.30;;;;;;4993393;28;20250;-65
2023/02/01 02:28:17;;;;;;;6.60;3.08;;;17.30;42.40;;;;;;5014622;28;20611;-65
2023/02/01 02:31:14;;;;;;;11.68;2.92;;;17.30;42.40;;;;;;5014129;28;20225;-65
2023/02/01 02:33:58;;;;;;;9.75;2.80;;;17.30;42.40;;;;;;5014587;28;20722;-65
2023/02/01 02:36:37;;;;;;;13.32;2.90;;;17.20;42.30;;;;;;5014630;28;20259;-65
2023/02/01 02:39:09;;;;;;;8.02;2.60;;;17.30;42.40;;;;;;5014451;28;20624;-65
2023/02/01 02:47:33;;;;;;;9.98;2.67;;;17.20;42.30;;;;;;5014524;28;20216;-65
2023/02/01 02:55:52;;;;;;;7.15;2.90;;;17.20;42.30;;;;;;5014302;28;20620;-65
2023/02/01 03:04:08;;;;;;;8.70;2.55;;;17.20;42.30;;;;;;5014030;28;20320;-65
2023/02/01 03:06:38;;;;;;;11.98;2.97;;;17.20;42.30;;;;;;5014451;28;20802;-66
2023/02/01 03:09:11;;;;;;;9.95;3.08;;;17.20;42.30;;;;;;5013740;28;20227;-65
2023/02/01 03:14:37;;;;;;;10.95;2.50;;;17.20;42.30;;;;;;4953336;29;20298;-65
2023/02/01 03:17:09;;;;;;;12.00;2.75;;;17.20;42.30;;;;;;4999839;28;20213;-65
2023/02/01 03:19:47;;;;;;;7.57;2.80;;;17.20;42.30;;;;;;5014112;28;20228;-65
2023/02/01 03:22:18;;;;;;;8.18;3.13;;;17.20;42.30;;;;;;5013885;28;20217;-65
2023/02/01 03:24:49;;;;;;;10.27;2.75;;;17.20;42.30;;;;;;5013934;28;20224;-65
2023/02/01 03:27:23;;;;;;;7.80;2.58;;;17.20;42.30;;;;;;5014043;28;20221;-65
2023/02/01 03:29:53;;;;;;;8.85;2.63;;;17.20;42.30;;;;;;5013743;28;20221;-65
2023/02/01 03:32:21;;;;;;;11.05;2.88;;;17.20;42.30;;;;;;5013476;28;20229;-65
2023/02/01 03:34:49;;;;;;;8.90;2.53;;;17.10;42.20;;;;;;5013389;28;20675;-65
2023/02/01 03:37:23;;;;;;;9.48;2.63;;;17.20;42.30;;;;;;5013523;28;20225;-65
2023/02/01 03:39:58;;;;;;;5.97;2.30;;;17.20;42.30;;;;;;5013635;28;20192;-68
2023/02/01 03:42:31;;;;;;;10.65;2.50;;;17.10;42.20;;;;;;5012357;28;20220;-65
2023/02/01 03:45:04;;;;;;;6.85;2.60;;;17.10;42.20;;;;;;5013169;28;20622;-65
2023/02/01 03:47:36;;;;;;;8.10;2.60;;;17.20;42.30;;;;;;5013517;28;20224;-66
2023/02/01 03:50:06;;;;;;;8.70;2.65;;;17.10;42.20;;;;;;5013196;28;20295;-65
2023/02/01 03:52:40;;;;;;;10.10;2.78;;;17.10;42.20;;;;;;5013294;28;20271;-65
2023/02/01 03:55:08;;;;;;;8.63;2.60;;;17.10;42.20;;;;;;5013358;28;20227;-66
2023/02/01 03:57:39;;;;;;;9.27;2.83;;;17.10;42.20;;;;;;5012947;28;20216;-66
2023/02/01 04:00:09;;;;;;;11.93;3.10;;;17.10;42.20;;;;;;5013361;28;20197;-65
2023/02/01 04:02:37;;;;;;;13.90;2.85;;;17.10;42.20;;;;;;5013067;28;20271;-66
2023/02/01 04:05:04;;;;;;;10.00;2.63;;;17.10;42.20;;;;;;5012813;28;20259;-65
2023/02/01 04:07:31;;;;;;;8.00;2.80;;;17.10;42.20;;;;;;5012767;28;20699;-65
2023/02/01 04:10:00;;;;;;;11.30;2.90;;;17.10;42.20;;;;;;5012975;28;20271;-66
2023/02/01 04:12:28;;;;;;;9.02;2.30;;;17.10;42.20;;;;;;5013286;28;20220;-65
2023/02/01 04:14:55;;;;;;;10.40;2.58;;;17.10;42.20;;;;;;5012955;28;20200;-66
2023/02/01 04:17:22;;;;;;;10.68;2.78;;;17.10;42.10;;;;;;5013032;28;20221;-66
2023/02/01 04:19:49;;;;;;;9.45;2.30;;;17.10;42.20;;;;;;5012962;28;20248;-66
2023/02/01 04:22:16;;;;;;;8.05;2.85;;;17.10;42.20;;;;;;5012913;28;20217;-67
2023/02/01 04:24:44;;;;;;;9.52;2.20;;;17.10;42.20;;;;;;5012843;28;20260;-65
2023/02/01 04:27:12;;;;;;;9.82;2.28;;;17.10;42.20;;;;;;5012937;28;20225;-65
2023/02/01 04:29:39;;;;;;;9.60;2.90;;;17.10;42.20;;;;;;5012873;28;20213;-65
2023/02/01 04:32:07;;;;;;;11.40;2.40;;;17.10;42.20;;;;;;5012844;28;20216;-66
2023/02/01 04:34:34;;;;;;;9.07;2.53;;;17.10;42.20;;;;;;5012432;28;20189;-65
2023/02/01 04:37:02;;;;;;;8.45;2.53;;;17.10;42.20;;;;;;5012472;28;21039;-66
2023/02/01 04:39:29;;;;;;;10.82;3.05;;;17.10;42.20;;;;;;5012719;28;20204;-65
2023/02/01 04:41:56;;;;;;;9.20;2.72;;;17.10;42.20;;;;;;5012887;28;20287;-69
2023/02/01 04:44:25;;;;;;;8.45;2.63;;;17.10;42.20;;;;;;5012583;28;20193;-64
2023/02/01 04:46:52;;;;;;;7.65;3.08;;;17.10;42.20;;;;;;5012642;28;20221;-66
2023/02/01 04:49:21;;;;;;;9.43;2.92;;;17.00;42.10;;;;;;5012272;28;20239;-66
2023/02/01 04:51:48;;;;;;;9.73;2.25;;;17.10;42.20;;;;;;5012643;28;20217;-65
2023/02/01 04:54:16;;;;;;;9.23;2.35;;;17.10;42.20;;;;;;5012109;28;20197;-65
2023/02/01 04:56:43;;;;;;;10.80;2.90;;;17.10;42.20;;;;;;5012482;28;20217;-66
2023/02/01 04:59:12;;;;;;;8.90;2.80;;;17.10;42.20;;;;;;5012187;28;20725;-66
2023/02/01 05:01:41;;;;;;;9.70;2.70;;;17.10;42.20;;;;;;5012601;28;20217;-66
2023/02/01 05:04:08;;;;;;;9.07;2.60;;;17.10;42.20;;;;;;5012251;28;20308;-65
2023/02/01 05:06:35;;;;;;;11.07;3.00;;;17.10;42.20;;;;;;5012546;28;20217;-65
2023/02/01 05:09:02;;;;;;;7.85;2.20;;;17.00;42.10;;;;;;5012428;28;20232;-66
2023/02/01 05:14:14;;;;;;;9.13;2.63;;;17.00;42.10;;;;;;5012363;28;20319;-65
2023/02/01 05:16:42;;;;;;;11.02;2.63;;;17.00;42.10;;;;;;5012341;28;20279;-65
2023/02/01 05:19:10;;;;;;;10.98;2.67;;;17.00;42.10;;;;;;5012364;28;20185;-65
2023/02/01 05:21:37;;;;;;;7.18;2.50;;;17.00;42.00;;;;;;5010864;28;20253;-65
2023/02/01 05:24:12;;;;;;;10.38;2.90;;;17.00;42.10;;;;;;5012213;28;20189;-65
2023/02/01 05:26:40;;;;;;;7.97;2.88;;;17.00;42.10;;;;;;5012378;28;20339;-65
2023/02/01 05:29:08;;;;;;;8.77;2.60;;;17.00;42.00;;;;;;5011871;28;20734;-65
2023/02/01 05:31:35;;;;;;;10.07;2.42;;;17.00;42.10;;;;;;5011904;28;20221;-65
2023/02/01 05:34:04;;;;;;;11.40;2.85;;;17.00;42.00;;;;;;5012213;28;20189;-65
2023/02/01 05:36:32;;;;;;;8.52;2.65;;;17.00;42.10;;;;;;5012031;28;20243;-65
2023/02/01 05:38:59;;;;;;;8.65;2.47;;;17.00;42.10;;;;;;5011835;28;20193;-65
2023/02/01 05:41:26;;;;;;;9.63;3.28;;;17.00;42.00;;;;;;5011775;28;20637;-65
2023/02/01 05:43:53;;;;;;;8.10;2.78;;;17.00;42.00;;;;;;5012123;28;20644;-65
2023/02/01 05:46:21;;;;;;;10.98;2.80;;;17.00;42.10;;;;;;5011779;28;20233;-65
2023/02/01 05:48:48;;;;;;;8.68;2.53;;;17.00;42.10;;;;;;5012030;28;20194;-65
2023/02/01 05:51:17;;;;;;;11.02;2.70;;;17.00;42.10;;;;;;5011616;28;20821;-65
2023/02/01 05:53:44;;;;;;;8.32;2.83;;;17.00;42.10;;;;;;5012159;28;20252;-65
2023/02/01 05:56:11;;;;;;;6.43;2.40;;;17.10;42.20;;;;;;5011852;28;20291;-67
2023/02/01 05:58:38;;;;;;;11.60;2.95;;;17.10;42.20;;;;;;5011934;28;20185;-65
2023/02/01 06:01:05;;;;;;;8.45;2.60;;;17.10;42.20;;;;;;5011858;28;20642;-71
2023/02/01 06:03:33;;;;;;;9.68;2.90;;;17.10;42.20;;;;;;5011647;28;20710;-65
2023/02/01 06:06:00;;;;;;;7.10;2.75;;;17.10;42.20;;;;;;5012133;28;20245;-67
2023/02/01 06:08:29;;;;;;;10.20;2.90;;;17.10;42.20;;;;;;5014983;28;20251;-65
2023/02/01 06:11:00;;;;;;;13.90;2.80;;;17.20;42.30;;;;;;5014936;28;20240;-66
2023/02/01 06:13:28;;;;;;;10.68;2.40;;;17.20;42.30;;;;;;5015249;28;20186;-65
2023/02/01 06:15:55;;;;;;;8.45;2.53;;;17.20;42.20;;;;;;5015271;28;20275;-65
2023/02/01 06:18:22;;;;;;;8.00;2.67;;;17.20;42.30;;;;;;5015087;28;20215;-65
2023/02/01 06:20:54;;;;;;;6.95;2.80;;;17.20;42.30;;;;;;5014872;28;20331;-67
2023/02/01 06:23:23;;;;;;;7.88;2.42;;;17.20;42.30;;;;;;5015087;28;20193;-65
2023/02/01 06:25:53;;;;;;;12.10;3.00;;;17.30;42.40;;;;;;5015056;28;20201;-66
2023/02/01 06:28:21;;;;;;;10.48;2.33;;;17.30;42.40;;;;;;5014537;28;20189;-65
2023/02/01 06:30:48;;;;;;;8.93;2.40;;;17.30;42.40;;;;;;5014926;28;20213;-65
2023/02/01 06:33:16;;;;;;;8.93;2.80;;;17.40;42.40;;;;;;5014832;28;20197;-65
2023/02/01 06:35:44;;;;;;;5.93;2.13;;;17.40;42.40;;;;;;5014471;28;20244;-66
2023/02/01 06:38:11;;;;;;;9.60;2.50;;;17.40;42.40;;;;;;5014824;28;20208;-65
2023/02/01 06:40:39;;;;;;;9.93;3.38;;;17.40;42.40;;;;;;5014761;28;20586;-65
2023/02/01 06:43:08;;;;;;;6.93;2.38;;;17.40;42.40;;;;;;5014824;28;20197;-65
2023/02/01 06:45:35;;;;;;;5.82;2.17;;;17.40;42.40;;;;;;5014336;28;20202;-65
2023/02/01 06:48:02;;;;;;;11.48;2.78;;;17.40;42.40;;;;;;5014687;28;20279;-65
2023/02/01 06:50:29;;;;;;;7.90;2.30;;;17.50;42.40;;;;;;5014220;28;20213;-65
2023/02/01 06:52:57;;;;;;;7.18;2.28;;;17.50;42.40;;;;;;5014648;28;20252;-65
2023/02/01 06:55:24;;;;;;;8.20;2.53;;;17.50;42.40;;;;;;5014581;28;20197;-65
2023/02/01 06:57:55;;;;;;;9.20;2.60;;;17.50;42.40;;;;;;5014141;28;20221;-65
2023/02/01 07:00:24;;;;;;;10.52;2.63;;;17.50;42.40;;;;;;5014325;28;20199;-65
2023/02/01 07:02:51;;;;;;;7.53;2.60;;;17.50;42.40;;;;;;5014392;28;20221;-65
2023/02/01 07:05:19;;;;;;;8.23;2.28;;;17.50;42.40;;;;;;5014151;28;20287;-67
2023/02/01 07:07:46;;;;;;;10.93;2.67;;;17.60;42.50;;;;;;5014165;28;20271;-66
2023/02/01 07:10:13;;;;;;;8.15;2.20;;;17.60;42.40;;;;;;5013914;28;20263;-65
2023/02/01 07:12:40;;;;;;;9.70;2.40;;;17.60;42.40;;;;;;5014022;28;20707;-65
2023/02/01 07:15:08;;;;;;;7.40;2.38;;;17.60;42.40;;;;;;5014155;28;20194;-66
2023/02/01 07:17:37;;;;;;;9.55;2.15;;;17.60;42.40;;;;;;5011195;28;20278;-66
2023/02/01 07:20:06;;;;;;;8.88;2.05;;;17.60;42.40;;;;;;5013139;28;20332;-65
2023/02/01 07:22:33;;;;;;;7.75;2.85;;;17.70;42.40;;;;;;5013238;28;20221;-67
2023/02/01 07:25:00;;;;;;;7.82;2.50;;;17.70;42.40;;;;;;5032512;28;20300;-66
2023/02/01 07:27:27;;;;;;;10.10;3.10;;;17.80;42.40;;;;;;5033362;28;20279;-65
2023/02/01 07:29:55;;;;;;;6.57;2.13;;;17.80;42.40;;;;;;5033405;28;20192;-66
2023/02/01 07:32:22;;;;;;;10.13;2.30;;;17.80;42.40;;;;;;5033189;28;20227;-66
2023/02/01 07:34:51;;;;;;;7.30;1.98;;;17.80;42.40;;;;;;5032842;28;20188;-66
2023/02/01 07:37:18;;;;;;;8.75;2.33;;;17.80;42.40;;;;;;5013388;28;20229;-65
2023/02/01 07:39:46;;;;;;;6.38;2.38;;;17.90;42.40;;;;;;5012964;28;20205;-65
2023/02/01 07:42:13;;;;;;;7.97;2.42;;;17.90;42.30;;;;;;5010117;28;20267;-66
2023/02/01 07:44:40;;;;;;;8.18;2.13;;;17.90;42.30;;;;;;5017510;28;20192;-66
2023/02/01 07:47:07;;;;;;;5.75;2.15;;;17.90;42.90;;;;;;5017997;28;20229;-66
2023/02/01 07:49:34;;;;;;;8.93;3.00;;;17.90;42.20;;;;;;5025456;28;20200;-68
2023/02/01 07:52:03;;;;;;;6.57;2.75;;;18.00;42.30;;;;;;5038820;28;20231;-66
2023/02/01 07:54:31;;;;;;;7.15;2.30;;;18.00;42.30;;;;;;5029664;28;21489;-65
2023/02/01 07:57:01;;;;;;;6.93;2.20;;;18.10;42.30;;;;;;5016303;28;20227;-65
2023/02/01 07:59:28;;;;;;;8.35;2.38;;;18.10;42.30;;;;;;5022065;28;20273;-67
2023/02/01 08:01:54;;;;;;;15.18;2.50;;;18.10;42.30;;;;;;5030675;28;20220;-65
2023/02/01 08:04:21;;;;;;;6.75;2.13;;;18.10;42.30;;;;;;5037586;28;20228;-66
2023/02/01 08:06:48;;;;;;;7.80;2.50;;;18.10;42.30;;;;;;5040223;28;20278;-66
2023/02/01 08:09:17;;;;;;;8.27;2.28;;;18.20;42.40;;;;;;5016112;28;20197;-66
2023/02/01 08:11:45;;;;;;;10.05;2.17;;;18.20;42.30;;;;;;5021629;28;20231;-66
2023/02/01 08:14:12;;;;;;;9.07;2.45;;;18.30;42.40;;;;;;5019818;28;20243;-66
2023/02/01 08:16:39;;;;;;;10.30;2.80;;;18.20;42.30;;;;;;5013249;28;20279;-64
2023/02/01 08:19:06;;;;;;;8.45;2.40;;;18.20;42.30;;;;;;5012869;28;20220;-66
2023/02/01 08:21:37;;;;;;;10.07;2.45;;;18.30;42.30;;;;;;5014108;28;20225;-65
2023/02/01 08:24:09;;;;;;;12.88;2.70;;;18.30;42.30;;;;;;5015260;28;20197;-66
2023/02/01 08:26:38;;;;;;;10.35;2.72;;;18.30;42.30;;;;;;5018757;28;20219;-66
2023/02/01 08:29:08;;;;;;;6.97;2.40;;;18.30;42.20;;;;;;5022389;28;20200;-67
2023/02/01 08:31:35;;;;;;;6.80;2.00;;;18.40;42.20;;;;;;5029017;28;20243;-65
2023/02/01 08:34:04;;;;;;;10.40;2.45;;;18.40;42.30;;;;;;5023661;28;20223;-67
2023/02/01 08:36:32;;;;;;;8.60;2.15;;;18.40;42.30;;;;;;5021155;28;20370;-66
2023/02/01 08:38:59;;;;;;;9.00;2.15;;;18.40;42.30;;;;;;5016337;28;20654;-65
2023/02/01 08:41:29;;;;;;;7.18;2.20;;;18.40;42.20;;;;;;5019411;28;20228;-67
2023/02/01 08:43:58;;;;;;;5.95;2.17;;;18.40;42.20;;;;;;5034484;28;20199;-66
2023/02/01 08:46:26;;;;;;;7.65;2.20;;;18.50;42.30;;;;;;5037118;28;20283;-68
2023/02/01 08:48:54;;;;;;;6.97;2.13;;;18.50;42.20;;;;;;5011354;28;20201;-66
2023/02/01 08:51:24;;;;;;;8.50;2.20;;;18.50;42.10;;;;;;5027224;28;20239;-66
2023/02/01 08:53:51;;;;;;;8.05;2.50;;;18.60;42.30;;;;;;5014415;28;20189;-65
2023/02/01 08:56:20;;;;;;;3.83;1.98;;;18.60;42.20;;;;;;5024222;28;20228;-66
2023/02/01 08:58:47;;;;;;;8.20;2.30;;;18.60;42.10;;;;;;5029789;28;20196;-66
2023/02/01 09:01:18;;;;;;;6.68;2.10;;;18.60;42.20;;;;;;5024110;28;20918;-69
2023/02/01 09:03:45;;;;;;;9.43;2.17;;;18.60;42.20;;;;;;5020362;28;20196;-76
2023/02/01 09:06:16;;;;;;;5.97;2.30;;;18.70;42.20;;;;;;5035436;28;20206;-67
2023/02/01 09:08:43;;;;;;;10.25;2.00;;;18.70;42.10;;;;;;5032617;28;20682;-67
2023/02/01 09:11:13;;;;;;;6.95;2.50;;;18.70;42.10;;;;;;5031717;28;20220;-69
2023/02/01 09:13:41;;;;;;;4.30;1.63;;;18.70;42.10;;;;;;5037474;28;20188;-70
2023/02/01 09:16:08;;;;;;;7.55;2.60;;;18.70;42.00;;;;;;5035449;28;20193;-68
2023/02/01 09:18:37;;;;;;;9.60;2.15;;;18.70;42.00;;;;;;5028127;28;20196;-68
2023/02/01 09:21:06;;;;;;;10.93;2.42;;;18.70;42.00;;;;;;5024247;28;20204;-67
2023/02/01 09:23:34;;;;;;;7.65;2.42;;;18.70;42.00;;;;;;5024914;28;20578;-68
2023/02/01 09:26:01;;;;;;;8.70;2.03;;;18.70;41.90;;;;;;5043891;28;20188;-72
2023/02/01 09:28:28;;;;;;;7.47;2.13;;;18.80;42.00;;;;;;5026071;28;20189;-71
2023/02/01 09:30:58;;;;;;;8.50;2.13;;;18.80;42.00;;;;;;5025919;28;20220;-68
2023/02/01 09:33:25;;;;;;;8.35;2.70;;;18.80;42.00;;;;;;5025142;28;20231;-72
2023/02/01 09:35:58;;;;;;;9.15;2.30;;;18.80;42.00;;;;;;5032607;28;20243;-70
2023/02/01 09:38:27;;;;;;;10.15;2.40;;;18.80;42.00;;;;;;5029241;28;20585;-68
2023/02/01 09:40:55;;;;;;;6.85;2.58;;;18.80;42.00;;;;;;5015715;28;20219;-69
2023/02/01 09:43:42;;;;;;;7.03;2.13;;;18.80;42.00;;;;;;5023361;28;20221;-71
2023/02/01 09:46:21;;;;;;;6.55;2.30;;;18.90;42.00;;;;;;5028903;28;20258;-75
2023/02/01 09:49:17;;;;;;;9.43;2.55;;;18.90;42.00;;;;;;5034719;28;20188;-68
2023/02/01 09:51:51;;;;;;;8.23;2.40;;;18.90;41.90;;;;;;5031065;28;20236;-68
2023/02/01 09:54:24;;;;;;;7.68;2.20;;;18.90;41.80;;;;;;5020751;28;20199;-67
2023/02/01 09:56:58;;;;;;;9.88;2.38;;;18.90;42.40;;;;;;5031487;28;20208;-67
2023/02/01 09:59:36;;;;;;;8.05;2.15;;;18.90;41.80;;;;;;5017817;28;20288;-67
2023/02/01 10:02:08;;;;;;;9.23;2.45;;;18.90;41.80;;;;;;5032858;28;20439;-65
2023/02/01 10:04:37;;;;;;;9.88;2.40;;;18.90;41.80;;;;;;5021592;28;20255;-65
2023/02/01 10:07:36;;;;;;;7.38;2.40;;;18.90;41.70;;;;;;4965801;28;20651;-66
2023/02/01 10:10:12;;;;;;;8.55;2.88;;;18.90;41.60;;;;;;5021506;28;20755;-66
2023/02/01 10:13:12;;;;;;;11.65;2.38;;;18.90;41.60;;;;;;5017755;28;20738;-65
2023/02/01 10:16:12;;;;;;;8.25;2.28;;;18.90;41.50;;;;;;5018867;28;20618;-67
2023/02/01 10:18:59;;;;;;;8.77;2.00;;;18.90;41.70;;;;;;5038123;28;20279;-65
2023/02/01 10:21:49;;;;;;;6.80;2.25;;;18.90;41.60;;;;;;5041894;28;20279;-65
2023/02/01 10:24:56;;;;;;;7.15;2.20;;;19.00;41.60;;;;;;5042526;28;20184;-65
2023/02/01 10:27:30;;;;;;;7.78;2.35;;;19.00;41.60;;;;;;5029699;28;20224;-65
2023/02/01 10:30:02;;;;;;;7.60;2.10;;;19.00;41.60;;;;;;5041515;28;20208;-67
2023/02/01 10:32:34;;;;;;;9.73;1.88;;;19.00;41.50;;;;;;5043693;28;20228;-69
2023/02/01 10:35:13;;;;;;;7.75;2.35;;;19.10;41.60;;;;;;5041468;28;20258;-66
2023/02/01 10:37:44;;;;;;;7.50;2.28;;;19.10;41.60;;;;;;5041421;28;20216;-67
2023/02/01 10:40:23;;;;;;;9.05;2.42;;;19.10;41.60;;;;;;5011782;28;20732;-66
2023/02/01 10:42:57;;;;;;;8.10;1.98;;;19.10;41.60;;;;;;5043438;28;20808;-66
2023/02/01 10:45:30;;;;;;;6.80;2.20;;;19.10;41.40;;;;;;5043371;28;20223;-66
2023/02/01 10:48:04;;;;;;;10.75;2.28;;;19.10;41.40;;;;;;5043027;28;20226;-69
2023/02/01 10:50:39;;;;;;;9.70;2.30;;;19.10;41.30;;;;;;5020911;28;20208;-67
2023/02/01 10:53:15;;;;;;;6.35;1.88;;;19.10;41.20;;;;;;4989841;28;20242;-66
2023/02/01 10:55:53;;;;;;;7.07;2.35;;;19.10;41.20;;;;;;5043243;28;20180;-68
2023/02/01 10:58:26;;;;;;;8.25;2.30;;;19.10;41.20;;;;;;5040913;28;20211;-67
2023/02/01 11:01:00;;;;;;;6.30;2.58;;;19.10;41.20;;;;;;5041632;28;20200;-67
2023/02/01 11:03:43;;;;;;;9.43;2.38;;;19.10;41.10;;;;;;5040706;28;20295;-69
2023/02/01 11:06:17;;;;;;;8.65;2.80;;;19.10;41.10;;;;;;5041150;28;20282;-66
2023/02/01 11:08:47;;;;;;;7.22;2.20;;;19.20;41.20;;;;;;5040450;28;20745;-67
2023/02/01 11:11:15;;;;;;;8.88;2.13;;;19.20;41.10;;;;;;5047435;28;20635;-68
2023/02/01 11:13:43;;;;;;;7.40;2.20;;;19.10;41.10;;;;;;5040571;28;20398;-67
2023/02/01 11:16:15;;;;;;;6.85;2.72;;;19.20;41.20;;;;;;5039589;28;20234;-67
2023/02/01 11:18:42;;;;;;;7.20;2.65;;;19.20;41.20;;;;;;5040422;28;20212;-67
2023/02/01 11:21:11;;;;;;;8.15;2.45;;;19.20;41.30;;;;;;5045915;28;20261;-66
2023/02/01 11:23:45;;;;;;;9.35;2.33;;;19.20;41.20;;;;;;5041603;28;20212;-66
2023/02/01 11:26:20;;;;;;;6.57;2.35;;;19.20;41.20;;;;;;5041030;28;20184;-66
2023/02/01 11:28:55;;;;;;;7.80;1.90;;;19.20;41.80;;;;;;5039372;28;20211;-68
2023/02/01 11:31:24;;;;;;;6.30;2.20;;;19.20;41.10;;;;;;5034287;28;20220;-67
2023/02/01 11:33:55;;;;;;;8.32;2.40;;;19.20;41.00;;;;;;5032431;28;20208;-67
2023/02/01 11:36:27;;;;;;;7.95;2.13;;;19.20;40.90;;;;;;5042313;28;20253;-68
2023/02/01 11:39:08;;;;;;;9.45;2.75;;;19.20;41.00;;;;;;5039720;28;20648;-65
2023/02/01 11:41:43;;;;;;;8.27;2.53;;;19.20;41.00;;;;;;5041065;28;20190;-66
2023/02/01 11:44:22;;;;;;;6.78;2.00;;;19.20;41.10;;;;;;5037951;28;20250;-66
2023/02/01 11:46:49;;;;;;;8.65;2.03;;;19.20;41.00;;;;;;5041475;28;20287;-66
2023/02/01 11:49:22;;;;;;;10.63;2.72;;;19.20;41.10;;;;;;5038605;28;20250;-66
2023/02/01 11:52:02;;;;;;;8.35;2.35;;;19.20;41.10;;;;;;5041909;28;20207;-66
2023/02/01 11:54:57;;;;;;;7.15;1.98;;;19.20;41.10;;;;;;5036293;28;20689;-67
2023/02/01 11:57:47;;;;;;;10.05;2.47;;;19.30;41.20;;;;;;5039548;28;20215;-66
2023/02/01 12:00:37;;;;;;;7.43;2.15;;;19.30;41.10;;;;;;5038133;28;20210;-68
2023/02/01 12:03:45;;;;;;;9.00;2.22;;;19.30;41.10;;;;;;5039798;28;20672;-70
2023/02/01 12:06:19;;;;;;;6.38;2.05;;;19.30;40.80;;;;;;5039575;28;20720;-67
2023/02/01 12:09:03;;;;;;;8.70;2.60;;;19.30;40.90;;;;;;5041442;28;20227;-68
2023/02/01 12:11:47;;;;;;;10.80;2.42;;;19.30;40.80;;;;;;5044674;28;20208;-66
2023/02/01 12:14:29;;;;;;;10.70;2.00;;;19.30;40.80;;;;;;5030375;28;20697;-68
2023/02/01 12:17:18;;;;;;;7.32;2.00;;;19.30;40.80;;;;;;5039227;28;20264;-68
2023/02/01 12:20:01;;;;;;;7.78;2.08;;;19.30;40.90;;;;;;5041066;28;20576;-68
2023/02/01 12:22:38;;;;;;;9.63;2.33;;;19.30;41.00;;;;;;5043493;28;20219;-68
2023/02/01 12:25:22;;;;;;;8.75;2.20;;;19.30;40.80;;;;;;5039724;28;20253;-70
2023/02/01 12:28:15;;;;;;;11.43;2.40;;;19.30;40.80;;;;;;5044120;28;20235;-71
2023/02/01 12:31:13;;;;;;;10.70;2.78;;;19.30;40.80;;;;;;5039086;28;20243;-69
2023/02/01 12:33:55;;;;;;;9.18;2.17;;;19.30;40.80;;;;;;5014875;28;20228;-69
2023/02/01 12:36:28;;;;;;;9.75;2.40;;;19.20;40.80;;;;;;5017785;28;20274;-71
2023/02/01 12:39:03;;;;;;;10.57;2.65;;;19.20;41.00;;;;;;5017251;28;20228;-72
2023/02/01 12:41:52;;;;;;;12.52;2.55;;;19.30;41.20;;;;;;5014946;28;20596;-70
2023/02/01 12:44:33;;;;;;;25.88;3.20;;;19.30;41.30;;;;;;5014420;28;20760;-67
2023/02/01 12:47:07;;;;;;;9.88;2.25;;;19.30;41.40;;;;;;5006004;28;20768;-68
2023/02/01 12:49:46;;;;;;;10.88;2.88;;;19.30;41.30;;;;;;5014558;28;20192;-65
2023/02/01 12:52:17;;;;;;;7.97;2.28;;;19.30;41.20;;;;;;5014596;28;20278;-66
2023/02/01 12:54:51;;;;;;;9.35;2.40;;;19.20;41.00;;;;;;5015148;28;20640;-67
2023/02/01 12:57:24;;;;;;;10.32;2.13;;;19.20;41.00;;;;;;5017107;28;20265;-67
2023/02/01 13:00:00;;;;;;;14.30;2.50;;;19.20;40.90;;;;;;5016664;28;20604;-67
2023/02/01 13:02:35;;;;;;;8.13;2.42;;;19.20;41.00;;;;;;5016650;28;21017;-65
2023/02/01 13:05:12;;;;;;;12.30;2.97;;;19.20;40.90;;;;;;5008390;28;20679;-67
2023/02/01 13:07:45;;;;;;;8.88;2.20;;;19.20;40.70;;;;;;5013497;28;20274;-69
2023/02/01 13:10:17;;;;;;;18.00;2.88;;;19.20;40.70;;;;;;5015181;28;20200;-66
2023/02/01 13:12:52;;;;;;;13.95;3.13;;;19.10;40.60;;;;;;5039525;28;20293;-67
2023/02/01 13:15:26;;;;;;;10.00;2.45;;;19.10;40.60;;;;;;5037466;28;20199;-69
2023/02/01 13:17:56;;;;;;;16.58;3.30;;;19.10;40.60;;;;;;5039817;28;20272;-70
2023/02/01 13:20:29;;;;;;;9.10;2.30;;;19.10;40.60;;;;;;5038615;28;20636;-70
2023/02/01 13:23:01;;;;;;;9.18;2.80;;;19.10;40.60;;;;;;5042137;28;20226;-67
2023/02/01 13:25:34;;;;;;;9.60;2.95;;;19.10;40.60;;;;;;5039397;28;20615;-69
2023/02/01 13:28:07;;;;;;;11.05;2.67;;;19.10;40.60;;;;;;5046623;28;20226;-67